Impacts METAR Board
IDs:

KJFK - New York/Kennedy Int, NY, US

Updated at: 0900 UTC 25 May 2020
Potential Impact None Slight Moderate High
Time 24/21Z 24/22Z 24/23Z 25/00Z 25/01Z 25/02Z 25/03Z 25/04Z 25/05Z 25/06Z 25/07Z 25/08Z 25/09Z
Temp64 63 61 58 57 57 57 58 58 58 57 57 56
Dewpt55 53 54 53 55 54 55 56 56 55 56 57 56
Altim30.24 30.23 30.23 30.22 30.23 30.24 30.24 30.24 30.23 30.21 30.21 30.22 30.21
VIS10 10 10 10 10 10 10 10 10 10 6 6 9
CIG250 250 250 250 250 250 250 11 12 13 9 7 6
CoverBKNBKNBKNBKNBKNBKNBKNOVCOVCOVCOVCOVCOVC
FltCatVFRVFRVFRVFRVFRVFRVFRMVFRMVFRMVFRIFRIFRIFR
WX---------------------DZ BR-DZ BR--
WDir1401101001101009080505030302050
WSpd10 15 12 10 10 6 8 8 6 6 5 5 4
WGst-- -- -- -- -- -- -- -- -- -- -- -- --
Raw hourly METARs
KJFK 242051Z 14010KT 10SM SCT035 SCT150 BKN250 18/13 A3024 RMK AO2 SLP241 T01780128 58007 $
KJFK 242151Z 11015KT 10SM FEW035 BKN250 17/12 A3023 RMK AO2 SLP236 T01720117 $
KJFK 242251Z 10012KT 10SM FEW035 BKN250 16/12 A3023 RMK AO2 SLP236 T01610122 $
KJFK 242351Z 11010KT 10SM FEW035 BKN250 14/12 A3022 RMK AO2 SLP234 T01440117 10183 20144 56007 $
KJFK 250051Z 10010KT 10SM FEW035 BKN250 14/13 A3023 RMK AO2 SLP236 T01390128 $
KJFK 250151Z 09006KT 10SM BKN250 14/12 A3024 RMK AO2 SLP239 T01390122 $
KJFK 250251Z 08008KT 10SM FEW021 BKN250 14/13 A3024 RMK AO2 SLP241 T01390128 51007 $
KJFK 250351Z 05008KT 10SM BKN011 BKN021 OVC250 14/13 A3024 RMK AO2 SLP240 T01440133 $
KJFK 250451Z 05006KT 10SM OVC012 14/13 A3023 RMK AO2 SLP236 T01440133 401830106 $
KJFK 250551Z 03006KT 10SM OVC013 14/13 A3021 RMK AO2 SLP230 T01440128 10150 20139 58011 $
KJFK 250651Z 03005KT 6SM -DZ BR OVC009 14/13 A3021 RMK AO2 DZB50 SLP228 P0000 T01390133 $
KJFK 250751Z 02005KT 6SM -DZ BR OVC007 14/14 A3022 RMK AO2 SLP232 P0000 T01390139 $
KJFK 250851Z 05004KT 9SM OVC006 13/13 A3021 RMK AO2 DZE13 SLP230 P0000 60000 T01330133 58000 $



Page loaded:  09:16 UTC  |   02:16 AM Pacific  |   03:16 AM Mountain  |   04:16 AM Central  |   05:16 AM Eastern

 

ADVISORIES

FORECASTS

FORECASTS

OBSERVATIONS

USER TOOLS

ABOUT US